sensor_id;sensor_type;location;lat;lon;timestamp;temperature;humidity
31387;DHT22;18017;50.124;8.688;2022-09-24T00:01:16;13.40;99.90
31387;DHT22;18017;50.124;8.688;2022-09-24T00:03:43;13.40;99.90
31387;DHT22;18017;50.124;8.688;2022-09-24T00:06:10;13.40;99.90
31387;DHT22;18017;50.124;8.688;2022-09-24T00:08:39;13.40;99.90
31387;DHT22;18017;50.124;8.688;2022-09-24T00:11:07;13.40;99.90
31387;DHT22;18017;50.124;8.688;2022-09-24T00:13:34;13.50;99.90
31387;DHT22;18017;50.124;8.688;2022-09-24T00:16:05;13.50;99.90
31387;DHT22;18017;50.124;8.688;2022-09-24T00:18:32;13.50;99.90
31387;DHT22;18017;50.124;8.688;2022-09-24T00:20:58;13.50;99.90
31387;DHT22;18017;50.124;8.688;2022-09-24T00:23:24;13.40;99.90
31387;DHT22;18017;50.124;8.688;2022-09-24T00:25:50;13.40;99.90
31387;DHT22;18017;50.124;8.688;2022-09-24T00:28:41;13.40;99.90
31387;DHT22;18017;50.124;8.688;2022-09-24T00:31:07;13.40;99.90
31387;DHT22;18017;50.124;8.688;2022-09-24T00:33:34;13.30;99.90
31387;DHT22;18017;50.124;8.688;2022-09-24T00:36:01;13.30;99.90
31387;DHT22;18017;50.124;8.688;2022-09-24T00:38:29;13.30;99.90
31387;DHT22;18017;50.124;8.688;2022-09-24T00:40:55;13.30;99.90
31387;DHT22;18017;50.124;8.688;2022-09-24T00:43:25;13.30;99.90
31387;DHT22;18017;50.124;8.688;2022-09-24T00:45:54;13.30;99.90
31387;DHT22;18017;50.124;8.688;2022-09-24T00:48:21;13.30;99.90
31387;DHT22;18017;50.124;8.688;2022-09-24T00:50:47;13.30;99.90
31387;DHT22;18017;50.124;8.688;2022-09-24T00:53:16;13.30;99.90
31387;DHT22;18017;50.124;8.688;2022-09-24T00:55:45;13.20;99.90
31387;DHT22;18017;50.124;8.688;2022-09-24T00:58:12;13.10;99.90
31387;DHT22;18017;50.124;8.688;2022-09-24T01:00:39;13.00;99.90
31387;DHT22;18017;50.124;8.688;2022-09-24T01:03:10;13.00;99.90
31387;DHT22;18017;50.124;8.688;2022-09-24T01:05:37;12.80;99.90
31387;DHT22;18017;50.124;8.688;2022-09-24T01:08:05;12.70;99.90
31387;DHT22;18017;50.124;8.688;2022-09-24T01:13:32;12.60;99.90
31387;DHT22;18017;50.124;8.688;2022-09-24T01:18:44;12.60;99.90
31387;DHT22;18017;50.124;8.688;2022-09-24T01:21:36;12.60;99.90
31387;DHT22;18017;50.124;8.688;2022-09-24T01:27:13;12.60;99.90
31387;DHT22;18017;50.124;8.688;2022-09-24T01:30:03;12.50;99.90
31387;DHT22;18017;50.124;8.688;2022-09-24T01:32:55;12.40;99.90
31387;DHT22;18017;50.124;8.688;2022-09-24T01:35:25;12.30;99.90
31387;DHT22;18017;50.124;8.688;2022-09-24T01:38:15;12.30;99.90
31387;DHT22;18017;50.124;8.688;2022-09-24T01:40:42;12.20;99.90
31387;DHT22;18017;50.124;8.688;2022-09-24T01:43:10;12.10;99.90
31387;DHT22;18017;50.124;8.688;2022-09-24T01:45:38;12.00;99.90
31387;DHT22;18017;50.124;8.688;2022-09-24T01:48:05;12.00;99.90
31387;DHT22;18017;50.124;8.688;2022-09-24T01:50:43;11.90;99.90
31387;DHT22;18017;50.124;8.688;2022-09-24T01:53:16;11.90;99.90
31387;DHT22;18017;50.124;8.688;2022-09-24T01:55:50;11.90;99.90
31387;DHT22;18017;50.124;8.688;2022-09-24T01:58:26;11.90;99.90
31387;DHT22;18017;50.124;8.688;2022-09-24T02:00:59;11.90;99.90
31387;DHT22;18017;50.124;8.688;2022-09-24T02:03:28;11.90;99.90
31387;DHT22;18017;50.124;8.688;2022-09-24T02:05:59;11.80;99.90
31387;DHT22;18017;50.124;8.688;2022-09-24T02:08:32;11.80;99.90
31387;DHT22;18017;50.124;8.688;2022-09-24T02:11:11;11.80;99.90
31387;DHT22;18017;50.124;8.688;2022-09-24T02:14:02;11.70;99.90
31387;DHT22;18017;50.124;8.688;2022-09-24T02:16:33;11.70;99.90
31387;DHT22;18017;50.124;8.688;2022-09-24T02:19:02;11.60;99.90
31387;DHT22;18017;50.124;8.688;2022-09-24T02:21:30;11.60;99.90
31387;DHT22;18017;50.124;8.688;2022-09-24T02:24:16;11.60;99.90
31387;DHT22;18017;50.124;8.688;2022-09-24T02:26:43;11.50;99.90
31387;DHT22;18017;50.124;8.688;2022-09-24T02:29:09;11.50;99.90
31387;DHT22;18017;50.124;8.688;2022-09-24T02:31:42;11.50;99.90
31387;DHT22;18017;50.124;8.688;2022-09-24T02:34:12;11.40;99.90
31387;DHT22;18017;50.124;8.688;2022-09-24T02:36:49;11.40;99.90
31387;DHT22;18017;50.124;8.688;2022-09-24T02:39:14;11.40;99.90
31387;DHT22;18017;50.124;8.688;2022-09-24T02:41:43;11.30;99.90
31387;DHT22;18017;50.124;8.688;2022-09-24T02:44:15;11.30;99.90
31387;DHT22;18017;50.124;8.688;2022-09-24T02:46:45;11.30;99.90
31387;DHT22;18017;50.124;8.688;2022-09-24T02:49:11;11.30;99.90
31387;DHT22;18017;50.124;8.688;2022-09-24T02:51:38;11.20;99.90
31387;DHT22;18017;50.124;8.688;2022-09-24T02:54:04;11.10;99.90
31387;DHT22;18017;50.124;8.688;2022-09-24T02:56:30;11.10;99.90
31387;DHT22;18017;50.124;8.688;2022-09-24T02:58:56;11.10;99.90
31387;DHT22;18017;50.124;8.688;2022-09-24T03:01:22;11.10;99.90
31387;DHT22;18017;50.124;8.688;2022-09-24T03:03:49;11.00;99.90
31387;DHT22;18017;50.124;8.688;2022-09-24T03:06:15;11.00;99.90
31387;DHT22;18017;50.124;8.688;2022-09-24T03:08:41;11.00;99.90
31387;DHT22;18017;50.124;8.688;2022-09-24T03:11:08;10.90;99.90
31387;DHT22;18017;50.124;8.688;2022-09-24T03:13:35;10.90;99.90
31387;DHT22;18017;50.124;8.688;2022-09-24T03:16:01;10.90;99.90
31387;DHT22;18017;50.124;8.688;2022-09-24T03:18:27;10.90;99.90
31387;DHT22;18017;50.124;8.688;2022-09-24T03:20:56;10.90;99.90
31387;DHT22;18017;50.124;8.688;2022-09-24T03:23:23;10.90;99.90
31387;DHT22;18017;50.124;8.688;2022-09-24T03:25:48;10.90;99.90
31387;DHT22;18017;50.124;8.688;2022-09-24T03:28:14;10.90;99.90
31387;DHT22;18017;50.124;8.688;2022-09-24T03:30:39;10.90;99.90
31387;DHT22;18017;50.124;8.688;2022-09-24T03:33:24;10.80;99.90
31387;DHT22;18017;50.124;8.688;2022-09-24T03:35:54;10.80;99.90
31387;DHT22;18017;50.124;8.688;2022-09-24T03:38:20;10.80;99.90
31387;DHT22;18017;50.124;8.688;2022-09-24T03:40:45;10.70;99.90
31387;DHT22;18017;50.124;8.688;2022-09-24T03:43:11;10.70;99.90
31387;DHT22;18017;50.124;8.688;2022-09-24T03:45:36;10.70;99.90
31387;DHT22;18017;50.124;8.688;2022-09-24T03:48:03;10.80;99.90
31387;DHT22;18017;50.124;8.688;2022-09-24T03:50:30;10.80;99.90
31387;DHT22;18017;50.124;8.688;2022-09-24T03:52:55;10.80;99.90
31387;DHT22;18017;50.124;8.688;2022-09-24T03:55:21;10.80;99.90
31387;DHT22;18017;50.124;8.688;2022-09-24T03:57:46;10.80;99.90
31387;DHT22;18017;50.124;8.688;2022-09-24T04:00:12;10.70;99.90
31387;DHT22;18017;50.124;8.688;2022-09-24T04:02:38;10.80;99.90
31387;DHT22;18017;50.124;8.688;2022-09-24T04:05:05;10.80;99.90
31387;DHT22;18017;50.124;8.688;2022-09-24T04:07:31;10.80;99.90
31387;DHT22;18017;50.124;8.688;2022-09-24T04:09:57;10.90;99.90
31387;DHT22;18017;50.124;8.688;2022-09-24T04:12:22;10.90;99.90
31387;DHT22;18017;50.124;8.688;2022-09-24T04:14:48;11.00;99.90
31387;DHT22;18017;50.124;8.688;2022-09-24T04:17:13;11.10;99.90
31387;DHT22;18017;50.124;8.688;2022-09-24T04:19:39;11.00;99.90
31387;DHT22;18017;50.124;8.688;2022-09-24T04:22:05;11.10;99.90
31387;DHT22;18017;50.124;8.688;2022-09-24T04:24:31;11.10;99.90
31387;DHT22;18017;50.124;8.688;2022-09-24T04:26:57;11.20;99.90
31387;DHT22;18017;50.124;8.688;2022-09-24T04:29:22;11.10;99.90
31387;DHT22;18017;50.124;8.688;2022-09-24T04:31:48;11.20;99.90
31387;DHT22;18017;50.124;8.688;2022-09-24T04:34:13;11.10;99.90
31387;DHT22;18017;50.124;8.688;2022-09-24T04:36:39;11.20;99.90
31387;DHT22;18017;50.124;8.688;2022-09-24T04:39:04;11.10;99.90
31387;DHT22;18017;50.124;8.688;2022-09-24T04:41:30;11.00;99.90
31387;DHT22;18017;50.124;8.688;2022-09-24T04:43:56;11.00;99.90
31387;DHT22;18017;50.124;8.688;2022-09-24T04:46:22;11.00;99.90
31387;DHT22;18017;50.124;8.688;2022-09-24T04:48:48;11.00;99.90
31387;DHT22;18017;50.124;8.688;2022-09-24T04:51:14;11.00;99.90
31387;DHT22;18017;50.124;8.688;2022-09-24T04:53:41;11.00;99.90
31387;DHT22;18017;50.124;8.688;2022-09-24T04:56:07;11.00;99.90
31387;DHT22;18017;50.124;8.688;2022-09-24T04:58:36;11.00;99.90
31387;DHT22;18017;50.124;8.688;2022-09-24T05:01:02;10.90;99.90
31387;DHT22;18017;50.124;8.688;2022-09-24T05:03:28;10.90;99.90
31387;DHT22;18017;50.124;8.688;2022-09-24T05:05:54;10.90;99.90
31387;DHT22;18017;50.124;8.688;2022-09-24T05:08:19;11.00;99.90
31387;DHT22;18017;50.124;8.688;2022-09-24T05:10:45;11.00;99.90
31387;DHT22;18017;50.124;8.688;2022-09-24T05:13:10;11.00;99.90
31387;DHT22;18017;50.124;8.688;2022-09-24T05:15:36;11.00;99.90
31387;DHT22;18017;50.124;8.688;2022-09-24T05:18:02;11.00;99.90
31387;DHT22;18017;50.124;8.688;2022-09-24T05:20:27;11.00;99.90
31387;DHT22;18017;50.124;8.688;2022-09-24T05:22:53;11.00;99.90
31387;DHT22;18017;50.124;8.688;2022-09-24T05:25:20;11.00;99.90
31387;DHT22;18017;50.124;8.688;2022-09-24T05:27:54;11.00;99.90
31387;DHT22;18017;50.124;8.688;2022-09-24T05:30:22;11.00;99.90
31387;DHT22;18017;50.124;8.688;2022-09-24T05:32:49;11.00;99.90
31387;DHT22;18017;50.124;8.688;2022-09-24T05:35:17;11.00;99.90
31387;DHT22;18017;50.124;8.688;2022-09-24T05:37:43;11.00;99.90
31387;DHT22;18017;50.124;8.688;2022-09-24T05:40:10;11.10;99.90
31387;DHT22;18017;50.124;8.688;2022-09-24T05:43:01;11.10;99.90
31387;DHT22;18017;50.124;8.688;2022-09-24T05:45:28;11.30;99.90
31387;DHT22;18017;50.124;8.688;2022-09-24T05:47:54;11.40;99.90
31387;DHT22;18017;50.124;8.688;2022-09-24T05:50:19;11.50;99.90
31387;DHT22;18017;50.124;8.688;2022-09-24T05:52:45;12.00;99.90
31387;DHT22;18017;50.124;8.688;2022-09-24T05:55:11;13.30;99.90
31387;DHT22;18017;50.124;8.688;2022-09-24T05:57:37;14.40;99.90
31387;DHT22;18017;50.124;8.688;2022-09-24T06:00:04;15.30;99.90
31387;DHT22;18017;50.124;8.688;2022-09-24T06:02:30;14.70;99.90
31387;DHT22;18017;50.124;8.688;2022-09-24T06:04:55;15.40;99.90
31387;DHT22;18017;50.124;8.688;2022-09-24T06:07:21;15.60;99.90
31387;DHT22;18017;50.124;8.688;2022-09-24T06:09:46;17.00;99.90
31387;DHT22;18017;50.124;8.688;2022-09-24T06:12:12;18.50;99.90
31387;DHT22;18017;50.124;8.688;2022-09-24T06:14:38;19.70;99.90
31387;DHT22;18017;50.124;8.688;2022-09-24T06:17:04;20.60;99.90
31387;DHT22;18017;50.124;8.688;2022-09-24T06:19:30;19.20;99.90
31387;DHT22;18017;50.124;8.688;2022-09-24T06:21:56;17.40;99.90
31387;DHT22;18017;50.124;8.688;2022-09-24T06:24:22;16.30;99.90
31387;DHT22;18017;50.124;8.688;2022-09-24T06:26:47;15.50;99.90
31387;DHT22;18017;50.124;8.688;2022-09-24T06:29:13;15.10;99.90
31387;DHT22;18017;50.124;8.688;2022-09-24T06:31:39;14.70;99.90
31387;DHT22;18017;50.124;8.688;2022-09-24T06:34:04;14.60;99.90
31387;DHT22;18017;50.124;8.688;2022-09-24T06:36:30;14.40;99.90
31387;DHT22;18017;50.124;8.688;2022-09-24T06:38:56;14.30;99.90
31387;DHT22;18017;50.124;8.688;2022-09-24T06:41:23;14.20;99.90
31387;DHT22;18017;50.124;8.688;2022-09-24T06:43:49;14.10;99.90
31387;DHT22;18017;50.124;8.688;2022-09-24T06:46:17;14.10;99.90
31387;DHT22;18017;50.124;8.688;2022-09-24T06:48:43;14.00;99.90
31387;DHT22;18017;50.124;8.688;2022-09-24T06:51:08;14.10;99.90
31387;DHT22;18017;50.124;8.688;2022-09-24T06:53:34;14.30;99.90
31387;DHT22;18017;50.124;8.688;2022-09-24T06:55:59;14.60;99.90
31387;DHT22;18017;50.124;8.688;2022-09-24T06:58:27;14.80;99.90
31387;DHT22;18017;50.124;8.688;2022-09-24T07:00:55;15.10;99.90
31387;DHT22;18017;50.124;8.688;2022-09-24T07:03:25;15.50;99.90
31387;DHT22;18017;50.124;8.688;2022-09-24T07:05:51;16.00;99.90
31387;DHT22;18017;50.124;8.688;2022-09-24T07:08:17;19.10;99.90
31387;DHT22;18017;50.124;8.688;2022-09-24T07:10:44;18.90;99.90
31387;DHT22;18017;50.124;8.688;2022-09-24T07:13:11;18.50;99.90
31387;DHT22;18017;50.124;8.688;2022-09-24T07:15:37;18.00;99.90
31387;DHT22;18017;50.124;8.688;2022-09-24T07:18:03;18.60;99.90
31387;DHT22;18017;50.124;8.688;2022-09-24T07:20:29;20.00;99.90
31387;DHT22;18017;50.124;8.688;2022-09-24T07:22:54;18.50;99.90
31387;DHT22;18017;50.124;8.688;2022-09-24T07:25:21;17.70;99.90
31387;DHT22;18017;50.124;8.688;2022-09-24T07:27:46;17.30;99.90
31387;DHT22;18017;50.124;8.688;2022-09-24T07:30:12;16.90;99.90
31387;DHT22;18017;50.124;8.688;2022-09-24T07:32:38;17.90;99.90
31387;DHT22;18017;50.124;8.688;2022-09-24T07:35:04;20.60;99.90
31387;DHT22;18017;50.124;8.688;2022-09-24T07:37:29;20.30;99.90
31387;DHT22;18017;50.124;8.688;2022-09-24T07:39:57;21.70;99.90
31387;DHT22;18017;50.124;8.688;2022-09-24T07:42:23;22.30;99.90
31387;DHT22;18017;50.124;8.688;2022-09-24T07:44:49;22.80;99.90
31387;DHT22;18017;50.124;8.688;2022-09-24T07:47:15;23.50;99.90
31387;DHT22;18017;50.124;8.688;2022-09-24T07:49:41;24.80;99.90
31387;DHT22;18017;50.124;8.688;2022-09-24T07:52:07;26.00;99.90
31387;DHT22;18017;50.124;8.688;2022-09-24T07:54:33;28.20;99.90
31387;DHT22;18017;50.124;8.688;2022-09-24T07:56:58;26.00;99.40
31387;DHT22;18017;50.124;8.688;2022-09-24T07:59:25;24.30;99.90
31387;DHT22;18017;50.124;8.688;2022-09-24T08:01:51;26.60;99.90
31387;DHT22;18017;50.124;8.688;2022-09-24T08:04:17;29.80;97.30
31387;DHT22;18017;50.124;8.688;2022-09-24T08:06:42;31.10;94.30
31387;DHT22;18017;50.124;8.688;2022-09-24T08:09:08;28.80;93.40
31387;DHT22;18017;50.124;8.688;2022-09-24T08:11:33;26.40;94.60
31387;DHT22;18017;50.124;8.688;2022-09-24T08:13:59;24.20;96.60
31387;DHT22;18017;50.124;8.688;2022-09-24T08:16:25;25.20;97.40
31387;DHT22;18017;50.124;8.688;2022-09-24T08:18:52;28.00;94.70
31387;DHT22;18017;50.124;8.688;2022-09-24T08:21:18;30.90;93.00
31387;DHT22;18017;50.124;8.688;2022-09-24T08:23:44;28.40;92.60
31387;DHT22;18017;50.124;8.688;2022-09-24T08:26:10;25.00;94.50
31387;DHT22;18017;50.124;8.688;2022-09-24T08:28:37;23.30;96.40
31387;DHT22;18017;50.124;8.688;2022-09-24T08:31:05;22.90;97.00
31387;DHT22;18017;50.124;8.688;2022-09-24T08:33:34;22.00;98.00
31387;DHT22;18017;50.124;8.688;2022-09-24T08:36:01;20.90;99.40
31387;DHT22;18017;50.124;8.688;2022-09-24T08:38:27;20.10;99.90
31387;DHT22;18017;50.124;8.688;2022-09-24T08:46:22;19.90;99.90
31387;DHT22;18017;50.124;8.688;2022-09-24T08:49:12;21.40;99.90
31387;DHT22;18017;50.124;8.688;2022-09-24T08:54:22;33.90;91.60
31387;DHT22;18017;50.124;8.688;2022-09-24T08:56:49;35.80;87.20
31387;DHT22;18017;50.124;8.688;2022-09-24T08:59:32;37.10;82.00
31387;DHT22;18017;50.124;8.688;2022-09-24T09:07:26;33.10;78.20
31387;DHT22;18017;50.124;8.688;2022-09-24T09:10:17;32.70;80.90
31387;DHT22;18017;50.124;8.688;2022-09-24T09:12:46;33.90;78.70
31387;DHT22;18017;50.124;8.688;2022-09-24T09:15:31;31.50;79.70
31387;DHT22;18017;50.124;8.688;2022-09-24T09:18:11;28.80;82.80
31387;DHT22;18017;50.124;8.688;2022-09-24T09:20:43;26.90;86.10
31387;DHT22;18017;50.124;8.688;2022-09-24T09:23:15;26.20;88.90
31387;DHT22;18017;50.124;8.688;2022-09-24T09:25:51;30.30;85.60
31387;DHT22;18017;50.124;8.688;2022-09-24T09:28:19;33.60;81.30
31387;DHT22;18017;50.124;8.688;2022-09-24T09:31:11;32.70;79.40
31387;DHT22;18017;50.124;8.688;2022-09-24T09:39:28;27.60;86.50
31387;DHT22;18017;50.124;8.688;2022-09-24T09:42:15;28.10;86.50
31387;DHT22;18017;50.124;8.688;2022-09-24T09:44:45;30.40;85.10
31387;DHT22;18017;50.124;8.688;2022-09-24T09:50:04;30.10;83.70
31387;DHT22;18017;50.124;8.688;2022-09-24T09:52:34;32.30;81.60
31387;DHT22;18017;50.124;8.688;2022-09-24T09:55:01;30.70;81.80
31387;DHT22;18017;50.124;8.688;2022-09-24T09:57:31;32.90;81.40
31387;DHT22;18017;50.124;8.688;2022-09-24T09:59:58;33.40;79.80
31387;DHT22;18017;50.124;8.688;2022-09-24T10:02:30;32.70;79.10
31387;DHT22;18017;50.124;8.688;2022-09-24T10:05:00;32.40;78.90
31387;DHT22;18017;50.124;8.688;2022-09-24T10:07:27;31.90;81.50
31387;DHT22;18017;50.124;8.688;2022-09-24T10:10:03;34.80;78.80
31387;DHT22;18017;50.124;8.688;2022-09-24T10:12:37;36.60;76.10
31387;DHT22;18017;50.124;8.688;2022-09-24T10:15:14;38.10;75.20
31387;DHT22;18017;50.124;8.688;2022-09-24T10:17:41;40.00;73.50
31387;DHT22;18017;50.124;8.688;2022-09-24T10:20:17;38.80;72.10
31387;DHT22;18017;50.124;8.688;2022-09-24T10:22:50;36.90;73.30
31387;DHT22;18017;50.124;8.688;2022-09-24T10:25:19;36.70;73.40
31387;DHT22;18017;50.124;8.688;2022-09-24T10:27:45;33.10;75.00
31387;DHT22;18017;50.124;8.688;2022-09-24T10:30:13;31.60;77.60
31387;DHT22;18017;50.124;8.688;2022-09-24T10:33:03;31.30;78.10
31387;DHT22;18017;50.124;8.688;2022-09-24T10:35:32;31.60;77.80
31387;DHT22;18017;50.124;8.688;2022-09-24T10:38:01;31.40;77.70
31387;DHT22;18017;50.124;8.688;2022-09-24T10:40:29;29.40;79.20
31387;DHT22;18017;50.124;8.688;2022-09-24T10:43:00;28.30;81.20
31387;DHT22;18017;50.124;8.688;2022-09-24T10:48:26;27.70;81.80
31387;DHT22;18017;50.124;8.688;2022-09-24T10:56:44;28.00;82.30
31387;DHT22;18017;50.124;8.688;2022-09-24T11:04:58;28.30;81.40
31387;DHT22;18017;50.124;8.688;2022-09-24T11:15:54;27.40;83.00
31387;DHT22;18017;50.124;8.688;2022-09-24T11:19:08;26.90;83.80
31387;DHT22;18017;50.124;8.688;2022-09-24T11:27:05;25.90;84.70
31387;DHT22;18017;50.124;8.688;2022-09-24T11:29:56;25.40;85.90
31387;DHT22;18017;50.124;8.688;2022-09-24T11:37:23;24.30;87.80
31387;DHT22;18017;50.124;8.688;2022-09-24T11:42:35;26.00;87.20
31387;DHT22;18017;50.124;8.688;2022-09-24T11:53:36;31.70;78.40
31387;DHT22;18017;50.124;8.688;2022-09-24T11:56:19;30.40;79.80
31387;DHT22;18017;50.124;8.688;2022-09-24T11:58:53;29.90;80.80
31387;DHT22;18017;50.124;8.688;2022-09-24T12:01:27;28.30;81.90
31387;DHT22;18017;50.124;8.688;2022-09-24T12:04:03;27.30;82.80
31387;DHT22;18017;50.124;8.688;2022-09-24T12:06:40;26.50;84.10
31387;DHT22;18017;50.124;8.688;2022-09-24T12:09:19;25.90;85.30
31387;DHT22;18017;50.124;8.688;2022-09-24T12:11:52;25.70;86.10
31387;DHT22;18017;50.124;8.688;2022-09-24T12:14:24;25.10;87.20
31387;DHT22;18017;50.124;8.688;2022-09-24T12:16:55;24.70;87.40
31387;DHT22;18017;50.124;8.688;2022-09-24T12:19:33;24.20;88.20
31387;DHT22;18017;50.124;8.688;2022-09-24T12:22:02;24.40;88.50
31387;DHT22;18017;50.124;8.688;2022-09-24T12:24:41;24.80;87.50
31387;DHT22;18017;50.124;8.688;2022-09-24T12:27:14;25.00;86.90
31387;DHT22;18017;50.124;8.688;2022-09-24T12:29:55;24.70;87.30
31387;DHT22;18017;50.124;8.688;2022-09-24T12:38:03;25.40;86.10
31387;DHT22;18017;50.124;8.688;2022-09-24T12:46:33;24.80;86.00
31387;DHT22;18017;50.124;8.688;2022-09-24T12:49:02;24.70;86.30
31387;DHT22;18017;50.124;8.688;2022-09-24T12:51:37;24.80;86.00
31387;DHT22;18017;50.124;8.688;2022-09-24T12:54:28;24.80;86.10
31387;DHT22;18017;50.124;8.688;2022-09-24T12:57:12;24.80;86.00
31387;DHT22;18017;50.124;8.688;2022-09-24T13:03:32;25.70;84.50
31387;DHT22;18017;50.124;8.688;2022-09-24T13:05:58;25.50;85.00
31387;DHT22;18017;50.124;8.688;2022-09-24T13:08:27;25.10;84.80
31387;DHT22;18017;50.124;8.688;2022-09-24T13:11:00;24.60;84.50
31387;DHT22;18017;50.124;8.688;2022-09-24T13:13:33;24.70;84.80
31387;DHT22;18017;50.124;8.688;2022-09-24T13:16:03;24.70;84.50
31387;DHT22;18017;50.124;8.688;2022-09-24T13:18:32;24.90;84.40
31387;DHT22;18017;50.124;8.688;2022-09-24T13:21:02;24.70;83.80
31387;DHT22;18017;50.124;8.688;2022-09-24T13:26:04;24.10;85.10
31387;DHT22;18017;50.124;8.688;2022-09-24T13:28:31;23.80;85.70
31387;DHT22;18017;50.124;8.688;2022-09-24T13:31:13;23.90;85.80
31387;DHT22;18017;50.124;8.688;2022-09-24T13:33:44;24.50;85.00
31387;DHT22;18017;50.124;8.688;2022-09-24T13:36:27;25.40;82.90
31387;DHT22;18017;50.124;8.688;2022-09-24T13:39:15;25.20;81.60
31387;DHT22;18017;50.124;8.688;2022-09-24T13:42:03;24.20;82.70
31387;DHT22;18017;50.124;8.688;2022-09-24T13:44:36;24.00;82.80
31387;DHT22;18017;50.124;8.688;2022-09-24T13:49:43;24.90;82.50
31387;DHT22;18017;50.124;8.688;2022-09-24T13:52:29;26.40;82.30
31387;DHT22;18017;50.124;8.688;2022-09-24T13:55:00;27.00;79.50
31387;DHT22;18017;50.124;8.688;2022-09-24T13:57:28;25.50;79.80
31387;DHT22;18017;50.124;8.688;2022-09-24T14:02:39;24.00;81.50
31387;DHT22;18017;50.124;8.688;2022-09-24T14:05:10;23.50;82.90
31387;DHT22;18017;50.124;8.688;2022-09-24T14:07:39;22.90;84.10
31387;DHT22;18017;50.124;8.688;2022-09-24T14:10:13;22.70;85.20
31387;DHT22;18017;50.124;8.688;2022-09-24T14:12:38;22.30;85.40
31387;DHT22;18017;50.124;8.688;2022-09-24T14:15:15;21.90;86.50
31387;DHT22;18017;50.124;8.688;2022-09-24T14:17:41;21.80;86.60
31387;DHT22;18017;50.124;8.688;2022-09-24T14:20:12;21.60;87.30
31387;DHT22;18017;50.124;8.688;2022-09-24T14:22:40;21.50;87.70
31387;DHT22;18017;50.124;8.688;2022-09-24T14:25:28;21.50;88.00
31387;DHT22;18017;50.124;8.688;2022-09-24T14:27:54;21.40;88.00
31387;DHT22;18017;50.124;8.688;2022-09-24T14:30:24;21.30;88.70
31387;DHT22;18017;50.124;8.688;2022-09-24T14:32:58;21.20;89.30
31387;DHT22;18017;50.124;8.688;2022-09-24T14:35:38;21.10;89.70
31387;DHT22;18017;50.124;8.688;2022-09-24T14:38:13;21.00;90.10
31387;DHT22;18017;50.124;8.688;2022-09-24T14:40:44;21.10;90.20
31387;DHT22;18017;50.124;8.688;2022-09-24T14:43:23;21.00;90.40
31387;DHT22;18017;50.124;8.688;2022-09-24T14:46:00;20.90;90.60
31387;DHT22;18017;50.124;8.688;2022-09-24T14:48:29;20.70;91.20
31387;DHT22;18017;50.124;8.688;2022-09-24T14:50:55;20.40;91.60
31387;DHT22;18017;50.124;8.688;2022-09-24T14:53:30;20.30;92.00
31387;DHT22;18017;50.124;8.688;2022-09-24T14:55:57;20.20;92.20
31387;DHT22;18017;50.124;8.688;2022-09-24T15:01:03;20.20;92.30
31387;DHT22;18017;50.124;8.688;2022-09-24T15:06:22;20.40;92.40
31387;DHT22;18017;50.124;8.688;2022-09-24T15:11:43;20.40;92.80
31387;DHT22;18017;50.124;8.688;2022-09-24T15:14:19;20.40;93.00
31387;DHT22;18017;50.124;8.688;2022-09-24T15:16:49;20.30;92.90
31387;DHT22;18017;50.124;8.688;2022-09-24T15:19:23;20.20;93.20
31387;DHT22;18017;50.124;8.688;2022-09-24T15:21:53;20.10;93.40
31387;DHT22;18017;50.124;8.688;2022-09-24T15:24:20;20.10;93.30
31387;DHT22;18017;50.124;8.688;2022-09-24T15:26:56;20.10;93.60
31387;DHT22;18017;50.124;8.688;2022-09-24T15:29:23;19.90;93.80
31387;DHT22;18017;50.124;8.688;2022-09-24T15:31:50;19.90;94.00
31387;DHT22;18017;50.124;8.688;2022-09-24T15:34:15;20.00;94.10
31387;DHT22;18017;50.124;8.688;2022-09-24T15:36:42;20.10;94.20
31387;DHT22;18017;50.124;8.688;2022-09-24T15:39:09;20.20;94.10
31387;DHT22;18017;50.124;8.688;2022-09-24T15:41:34;20.30;94.10
31387;DHT22;18017;50.124;8.688;2022-09-24T15:44:00;20.40;94.00
31387;DHT22;18017;50.124;8.688;2022-09-24T15:46:26;20.40;94.20
31387;DHT22;18017;50.124;8.688;2022-09-24T15:48:52;20.30;94.70
31387;DHT22;18017;50.124;8.688;2022-09-24T15:51:19;20.30;94.60
31387;DHT22;18017;50.124;8.688;2022-09-24T15:53:45;20.30;94.70
31387;DHT22;18017;50.124;8.688;2022-09-24T15:56:11;20.20;95.00
31387;DHT22;18017;50.124;8.688;2022-09-24T15:58:37;20.00;94.90
31387;DHT22;18017;50.124;8.688;2022-09-24T16:01:03;20.00;95.50
31387;DHT22;18017;50.124;8.688;2022-09-24T16:03:30;19.80;95.70
31387;DHT22;18017;50.124;8.688;2022-09-24T16:05:57;19.70;96.10
31387;DHT22;18017;50.124;8.688;2022-09-24T16:08:24;19.60;96.20
31387;DHT22;18017;50.124;8.688;2022-09-24T16:10:51;19.50;96.40
31387;DHT22;18017;50.124;8.688;2022-09-24T16:13:18;19.50;96.50
31387;DHT22;18017;50.124;8.688;2022-09-24T16:15:44;19.40;96.50
31387;DHT22;18017;50.124;8.688;2022-09-24T16:18:14;19.40;96.50
31387;DHT22;18017;50.124;8.688;2022-09-24T16:20:40;19.30;96.60
31387;DHT22;18017;50.124;8.688;2022-09-24T16:23:15;19.30;96.80
31387;DHT22;18017;50.124;8.688;2022-09-24T16:25:48;19.20;96.90
31387;DHT22;18017;50.124;8.688;2022-09-24T16:28:17;19.20;97.00
31387;DHT22;18017;50.124;8.688;2022-09-24T16:30:42;19.20;97.10
31387;DHT22;18017;50.124;8.688;2022-09-24T16:33:08;19.10;97.20
31387;DHT22;18017;50.124;8.688;2022-09-24T16:35:33;19.00;97.50
31387;DHT22;18017;50.124;8.688;2022-09-24T16:37:59;19.00;97.50
31387;DHT22;18017;50.124;8.688;2022-09-24T16:40:25;19.00;97.80
31387;DHT22;18017;50.124;8.688;2022-09-24T16:42:50;18.90;97.80
31387;DHT22;18017;50.124;8.688;2022-09-24T16:45:16;18.90;98.00
31387;DHT22;18017;50.124;8.688;2022-09-24T16:47:42;18.90;98.10
31387;DHT22;18017;50.124;8.688;2022-09-24T16:50:08;18.80;98.30
31387;DHT22;18017;50.124;8.688;2022-09-24T16:52:33;18.70;98.50
31387;DHT22;18017;50.124;8.688;2022-09-24T16:54:59;18.70;98.80
31387;DHT22;18017;50.124;8.688;2022-09-24T16:57:25;18.60;99.10
31387;DHT22;18017;50.124;8.688;2022-09-24T16:59:50;18.60;99.40
31387;DHT22;18017;50.124;8.688;2022-09-24T17:02:16;18.60;99.90
31387;DHT22;18017;50.124;8.688;2022-09-24T17:04:42;18.50;99.90
31387;DHT22;18017;50.124;8.688;2022-09-24T17:07:08;18.50;99.90
31387;DHT22;18017;50.124;8.688;2022-09-24T17:09:34;18.50;99.90
31387;DHT22;18017;50.124;8.688;2022-09-24T17:12:18;18.50;99.90
31387;DHT22;18017;50.124;8.688;2022-09-24T17:14:44;18.40;99.90
31387;DHT22;18017;50.124;8.688;2022-09-24T17:17:10;18.40;99.90
31387;DHT22;18017;50.124;8.688;2022-09-24T17:19:35;18.40;99.90
31387;DHT22;18017;50.124;8.688;2022-09-24T17:22:01;18.30;99.90
31387;DHT22;18017;50.124;8.688;2022-09-24T17:24:26;18.30;99.90
31387;DHT22;18017;50.124;8.688;2022-09-24T17:26:52;18.30;99.90
31387;DHT22;18017;50.124;8.688;2022-09-24T17:29:18;18.20;99.90
31387;DHT22;18017;50.124;8.688;2022-09-24T17:31:46;18.10;99.90